Terminal Aerodrome Forecast
Issued by NWS Albany, NY

Home | Current Version | Previous Version | Text Only | Print | Product List | Glossary On
Versions: 1 2 3 4 5 6 7 8 9 10 11 12 13 14 15 16 17
665
FTUS41 KALY 041122
TAFGFL
TAF
KGFL 041122Z 0412/0512 32005KT P6SM SCT035
     FM041400 36005KT P6SM SCT040
     FM041800 02007KT P6SM SKC
     FM042300 VRB03KT P6SM SCT250
     FM050300 VRB03KT P6SM SCT120 BKN250
     FM050800 VRB03KT P6SM VCSH OVC050
     FM051000 VRB03KT 2SM -SN OVC025=

USA.gov is the U.S. government's official web portal to all federal, state and local government web resources and services.